Time;durP1;ratioP1;P1;durP2;ratioP2;P2;SDS_P1;SDS_P2;PMS_P1;PMS_P2;Temp;Humidity;BMP_temperature;BMP_pressure;BME280_temperature;BME280_humidity;BME280_pressure;Samples;Min_cycle;Max_cycle;Signal;HPM_P1;HPM_P2
2021/06/29 00:01:19;;;;;;;12.80;12.00;;;17.30;99.90;;;;;;4915476;29;20201;-76
2021/06/29 00:03:45;;;;;;;12.77;11.87;;;17.30;99.90;;;;;;4915453;29;20207;-76
2021/06/29 00:06:12;;;;;;;13.30;12.40;;;17.30;99.90;;;;;;4918291;29;20198;-76
2021/06/29 00:08:40;;;;;;;12.80;11.87;;;17.30;99.90;;;;;;4915096;29;20255;-75
2021/06/29 00:11:07;;;;;;;12.93;12.00;;;17.40;99.90;;;;;;4914021;29;20644;-75
2021/06/29 00:13:34;;;;;;;12.47;11.57;;;17.40;99.90;;;;;;4915474;29;20642;-76
2021/06/29 00:16:01;;;;;;;12.20;11.40;;;17.40;99.90;;;;;;4922108;29;20199;-76
2021/06/29 00:18:27;;;;;;;12.83;11.93;;;17.30;99.90;;;;;;4914000;29;20211;-76
2021/06/29 00:20:54;;;;;;;12.23;11.43;;;17.40;99.90;;;;;;4915276;29;20231;-76
2021/06/29 00:23:21;;;;;;;11.97;11.17;;;17.30;99.90;;;;;;4915357;29;20203;-76
2021/06/29 00:25:49;;;;;;;10.57;9.67;;;17.30;99.90;;;;;;4915118;29;20200;-75
2021/06/29 00:28:16;;;;;;;10.40;9.70;;;17.40;99.90;;;;;;4913935;29;20211;-75
2021/06/29 00:30:43;;;;;;;9.87;9.07;;;17.40;99.90;;;;;;4914989;29;20225;-76
2021/06/29 00:33:09;;;;;;;8.07;7.40;;;17.40;99.90;;;;;;4926548;29;20296;-75
2021/06/29 00:35:36;;;;;;;7.57;6.77;;;17.40;99.90;;;;;;4913876;29;20209;-76
2021/06/29 00:38:03;;;;;;;7.50;6.80;;;17.40;99.90;;;;;;4918349;29;20269;-76
2021/06/29 00:40:31;;;;;;;6.57;5.97;;;17.40;99.90;;;;;;4918502;29;20296;-76
2021/06/29 00:42:59;;;;;;;6.63;6.03;;;17.40;99.90;;;;;;4917285;29;20205;-76
2021/06/29 00:45:26;;;;;;;6.50;5.77;;;17.40;99.90;;;;;;4917145;29;20206;-76
2021/06/29 00:47:53;;;;;;;6.03;5.53;;;17.30;99.90;;;;;;4918312;29;20225;-76
2021/06/29 00:50:20;;;;;;;7.13;5.77;;;17.40;99.90;;;;;;4918126;29;20712;-76
2021/06/29 00:52:47;;;;;;;6.43;5.93;;;17.30;99.90;;;;;;4918118;29;20208;-75
2021/06/29 00:55:14;;;;;;;6.73;6.13;;;17.40;99.90;;;;;;4918219;29;20201;-76
2021/06/29 00:57:43;;;;;;;6.43;5.93;;;17.30;99.90;;;;;;4913834;29;20649;-76
2021/06/29 01:00:13;;;;;;;7.37;5.60;;;17.30;99.90;;;;;;4913294;29;20754;-75
2021/06/29 01:02:40;;;;;;;7.33;5.33;;;17.30;99.90;;;;;;4918019;29;20211;-76
2021/06/29 01:05:08;;;;;;;5.93;5.43;;;17.20;99.90;;;;;;4918147;29;20691;-76
2021/06/29 01:07:35;;;;;;;5.97;5.47;;;17.20;99.90;;;;;;4915098;29;20207;-76
2021/06/29 01:10:05;;;;;;;6.60;6.00;;;17.20;99.90;;;;;;4916894;29;20276;-76
2021/06/29 01:12:32;;;;;;;5.87;5.37;;;17.20;99.90;;;;;;4916648;29;20259;-76
2021/06/29 01:14:59;;;;;;;5.97;5.47;;;17.20;99.90;;;;;;4916944;29;20233;-76
2021/06/29 01:17:27;;;;;;;5.33;4.93;;;17.10;99.90;;;;;;4917708;29;20652;-76
2021/06/29 01:19:54;;;;;;;5.50;5.00;;;17.10;99.90;;;;;;4916408;29;20217;-76
2021/06/29 01:22:25;;;;;;;7.87;5.77;;;17.10;99.90;;;;;;4917756;29;20268;-76
2021/06/29 01:24:53;;;;;;;5.43;4.93;;;17.00;99.90;;;;;;4916634;29;20222;-75
2021/06/29 01:27:31;;;;;;;5.60;5.10;;;17.00;99.90;;;;;;4916186;29;20626;-76
2021/06/29 01:32:42;;;;;;;6.87;4.90;;;17.00;99.90;;;;;;4923485;29;20659;-76
2021/06/29 01:35:10;;;;;;;5.93;5.33;;;17.00;99.90;;;;;;4917535;29;20213;-76
2021/06/29 01:37:39;;;;;;;5.30;4.80;;;17.00;99.90;;;;;;4917419;29;20209;-76
2021/06/29 01:40:10;;;;;;;5.70;5.13;;;16.90;99.90;;;;;;4916197;29;20701;-77
2021/06/29 01:42:37;;;;;;;5.63;5.23;;;16.90;99.90;;;;;;4917377;29;20213;-75
2021/06/29 01:45:06;;;;;;;5.83;5.20;;;16.90;99.90;;;;;;4917448;29;20269;-75
2021/06/29 01:47:38;;;;;;;5.73;5.10;;;16.90;99.90;;;;;;4916261;29;20262;-75
2021/06/29 01:50:15;;;;;;;6.17;5.67;;;16.90;99.90;;;;;;4932808;23;20232;-80
2021/06/29 01:52:44;;;;;;;6.03;5.43;;;17.00;99.90;;;;;;4933370;29;20207;-80
2021/06/29 01:55:12;;;;;;;6.13;5.53;;;17.00;99.90;;;;;;4915884;29;20201;-80
2021/06/29 01:57:42;;;;;;;5.70;5.10;;;17.00;99.90;;;;;;4932484;29;20209;-80
2021/06/29 02:00:11;;;;;;;6.23;5.73;;;17.00;99.90;;;;;;4918557;29;20256;-81
2021/06/29 02:02:41;;;;;;;5.67;5.20;;;17.00;99.90;;;;;;4919171;29;20568;-80
2021/06/29 02:05:08;;;;;;;5.73;5.23;;;17.00;99.90;;;;;;4932448;29;20711;-78
2021/06/29 02:07:35;;;;;;;6.57;5.67;;;17.00;99.90;;;;;;4909843;29;20279;-80
2021/06/29 02:10:03;;;;;;;7.40;5.50;;;17.00;99.90;;;;;;4932263;29;20225;-80
2021/06/29 02:12:30;;;;;;;5.23;4.83;;;17.00;99.90;;;;;;4916565;29;20211;-80
2021/06/29 02:14:57;;;;;;;5.33;4.93;;;17.00;99.90;;;;;;4919643;29;20202;-80
2021/06/29 02:17:24;;;;;;;6.03;5.53;;;17.00;99.90;;;;;;4916356;29;20199;-80
2021/06/29 02:19:51;;;;;;;5.80;5.40;;;17.10;99.90;;;;;;4916565;29;20232;-80
2021/06/29 02:22:18;;;;;;;6.63;5.60;;;17.10;99.90;;;;;;4916720;29;20209;-80
2021/06/29 02:24:44;;;;;;;5.60;5.20;;;17.10;99.90;;;;;;4916674;29;20203;-80
2021/06/29 02:27:12;;;;;;;6.20;5.60;;;17.10;99.90;;;;;;4916811;29;20210;-80
2021/06/29 02:29:40;;;;;;;5.03;4.63;;;17.10;99.90;;;;;;4915383;29;20233;-80
2021/06/29 02:32:07;;;;;;;5.27;4.73;;;17.00;99.90;;;;;;4916467;29;20286;-80
2021/06/29 02:34:34;;;;;;;5.47;5.00;;;17.00;99.90;;;;;;4916301;29;20205;-79
2021/06/29 02:37:01;;;;;;;5.30;4.90;;;17.00;99.90;;;;;;4916046;29;20196;-78
2021/06/29 02:39:28;;;;;;;5.27;4.87;;;17.00;99.90;;;;;;4916266;29;20577;-80
2021/06/29 02:41:55;;;;;;;5.20;4.80;;;17.00;99.90;;;;;;4916194;29;20201;-80
2021/06/29 02:44:23;;;;;;;5.40;4.90;;;17.00;99.90;;;;;;4935059;29;20215;-80
2021/06/29 02:46:50;;;;;;;5.20;4.80;;;16.90;99.90;;;;;;4907802;29;20207;-78
2021/06/29 02:49:17;;;;;;;5.50;5.00;;;16.90;99.90;;;;;;4915702;29;20552;-79
2021/06/29 02:51:44;;;;;;;5.23;4.83;;;16.90;99.90;;;;;;4917971;29;20766;-79
2021/06/29 02:54:13;;;;;;;5.03;4.63;;;16.90;99.90;;;;;;4916187;29;20203;-78
2021/06/29 02:56:40;;;;;;;4.97;4.53;;;17.00;99.90;;;;;;4930100;29;20208;-77
2021/06/29 02:59:09;;;;;;;5.80;5.20;;;17.00;99.90;;;;;;4914595;29;20210;-78
2021/06/29 03:01:37;;;;;;;5.33;4.93;;;17.00;99.90;;;;;;4924770;29;20236;-77
2021/06/29 03:04:05;;;;;;;5.20;4.80;;;17.10;99.90;;;;;;4916016;29;20197;-78
2021/06/29 03:06:33;;;;;;;5.40;5.00;;;17.00;99.90;;;;;;4915978;29;20200;-77
2021/06/29 03:09:00;;;;;;;8.87;5.60;;;17.00;99.90;;;;;;4913366;29;20249;-77
2021/06/29 03:11:26;;;;;;;5.33;4.93;;;17.00;99.90;;;;;;4914387;29;20287;-79
2021/06/29 03:13:53;;;;;;;5.33;4.93;;;17.00;99.90;;;;;;4914336;29;20204;-77
2021/06/29 03:16:20;;;;;;;4.80;4.40;;;17.00;99.90;;;;;;4915656;29;20203;-77
2021/06/29 03:18:48;;;;;;;4.63;4.33;;;17.00;99.90;;;;;;4915288;29;20215;-78
2021/06/29 03:21:16;;;;;;;5.10;4.70;;;17.00;99.90;;;;;;4913964;29;20241;-77
2021/06/29 03:23:54;;;;;;;5.20;4.80;;;17.00;99.90;;;;;;4929158;29;20207;-78
2021/06/29 03:26:23;;;;;;;5.50;5.00;;;17.00;99.90;;;;;;4927647;29;20206;-78
2021/06/29 03:29:12;;;;;;;5.70;5.00;;;17.00;99.90;;;;;;4912883;29;20205;-78
2021/06/29 03:35:52;;;;;;;5.20;4.70;;;16.90;99.90;;;;;;4859197;29;20221;-78
2021/06/29 03:42:07;;;;;;;4.40;4.10;;;16.80;99.90;;;;;;4908839;29;20235;-77
2021/06/29 03:44:34;;;;;;;4.90;4.50;;;16.80;99.90;;;;;;4915126;29;20202;-77
2021/06/29 03:47:01;;;;;;;4.83;4.43;;;16.70;99.90;;;;;;4915933;29;20204;-77
2021/06/29 03:49:27;;;;;;;4.87;4.47;;;16.70;99.90;;;;;;4918743;29;20206;-77
2021/06/29 03:51:56;;;;;;;5.10;4.60;;;16.70;99.90;;;;;;4920386;29;20220;-77
2021/06/29 03:54:24;;;;;;;5.20;4.80;;;16.70;99.90;;;;;;4918049;29;20209;-77
2021/06/29 03:56:53;;;;;;;5.33;4.43;;;16.70;99.90;;;;;;4918098;29;20208;-80
2021/06/29 03:59:20;;;;;;;4.63;4.33;;;16.70;99.90;;;;;;4918390;29;20253;-80
2021/06/29 04:01:47;;;;;;;5.33;4.83;;;16.70;99.90;;;;;;4919645;29;20666;-80
2021/06/29 04:04:14;;;;;;;5.40;4.90;;;16.70;99.90;;;;;;4918506;29;20281;-80
2021/06/29 04:06:40;;;;;;;4.93;4.53;;;16.80;99.90;;;;;;4918131;29;20205;-80
2021/06/29 04:09:09;;;;;;;4.90;4.60;;;16.80;99.90;;;;;;4917223;29;20675;-81
2021/06/29 04:11:37;;;;;;;4.90;4.50;;;16.80;99.90;;;;;;4920213;29;20234;-81
2021/06/29 04:14:05;;;;;;;4.50;4.20;;;16.70;99.90;;;;;;4921266;29;20215;-80
2021/06/29 04:16:31;;;;;;;5.00;4.60;;;16.60;99.90;;;;;;4918488;29;20195;-80
2021/06/29 04:18:59;;;;;;;4.57;4.17;;;16.60;99.90;;;;;;4920619;29;20198;-81
2021/06/29 04:21:26;;;;;;;4.20;3.90;;;16.50;99.90;;;;;;4921089;29;20606;-81
2021/06/29 04:23:52;;;;;;;4.43;4.13;;;16.40;99.90;;;;;;4920782;29;20215;-81
2021/06/29 04:26:21;;;;;;;4.83;4.37;;;16.40;99.90;;;;;;4920588;29;20207;-81
2021/06/29 04:28:48;;;;;;;3.80;3.60;;;16.40;99.90;;;;;;4921483;29;20267;-81
2021/06/29 04:31:17;;;;;;;5.00;4.70;;;16.30;99.90;;;;;;4921632;29;20218;-81
2021/06/29 04:33:43;;;;;;;5.53;5.10;;;16.30;99.90;;;;;;4922942;29;20305;-80
2021/06/29 04:36:10;;;;;;;4.00;3.70;;;16.30;99.90;;;;;;4922047;29;20205;-79
2021/06/29 04:38:37;;;;;;;4.33;3.93;;;16.30;99.90;;;;;;4919598;29;20258;-80
2021/06/29 04:41:04;;;;;;;4.40;4.10;;;16.30;99.90;;;;;;4919660;29;20228;-81
2021/06/29 04:43:32;;;;;;;6.23;5.70;;;16.30;99.90;;;;;;4919789;29;20209;-80
2021/06/29 04:45:59;;;;;;;7.53;7.00;;;16.30;99.90;;;;;;4920655;29;20212;-83
2021/06/29 04:48:26;;;;;;;8.30;7.80;;;16.30;99.90;;;;;;4921134;29;20227;-82
2021/06/29 04:50:54;;;;;;;8.47;7.93;;;16.40;99.90;;;;;;4919448;29;20221;-81
2021/06/29 04:53:21;;;;;;;8.30;7.80;;;16.40;99.90;;;;;;4920872;29;20286;-83
2021/06/29 04:55:47;;;;;;;5.10;4.67;;;16.40;99.90;;;;;;4920485;29;20204;-81
2021/06/29 04:58:14;;;;;;;8.13;7.53;;;16.40;99.90;;;;;;4919127;29;20687;-83
2021/06/29 05:00:45;;;;;;;8.07;7.57;;;16.50;99.90;;;;;;4919062;29;20231;-81
2021/06/29 05:03:12;;;;;;;5.30;4.90;;;16.50;99.90;;;;;;4919212;29;20204;-83
2021/06/29 05:05:39;;;;;;;7.93;7.47;;;16.50;99.90;;;;;;4920614;29;20607;-82
2021/06/29 05:08:07;;;;;;;5.00;4.60;;;16.60;99.90;;;;;;4918843;29;20268;-83
2021/06/29 05:10:34;;;;;;;4.57;4.17;;;16.60;99.90;;;;;;4920674;29;20219;-82
2021/06/29 05:13:01;;;;;;;5.60;5.17;;;16.60;99.90;;;;;;4918863;29;20205;-82
2021/06/29 05:15:28;;;;;;;4.67;4.37;;;16.60;99.90;;;;;;4920148;29;20202;-83
2021/06/29 05:17:57;;;;;;;5.20;4.80;;;16.60;99.90;;;;;;4917966;29;20200;-82
2021/06/29 05:20:24;;;;;;;7.00;5.63;;;16.70;99.90;;;;;;4917746;29;20601;-83
2021/06/29 05:22:51;;;;;;;5.20;4.80;;;16.60;99.90;;;;;;4920146;29;20206;-82
2021/06/29 05:25:18;;;;;;;4.70;4.40;;;16.80;99.90;;;;;;4919420;29;20579;-83
2021/06/29 05:27:45;;;;;;;4.73;4.43;;;16.70;99.90;;;;;;4917616;29;20218;-83
2021/06/29 05:30:13;;;;;;;4.87;4.57;;;16.80;99.90;;;;;;4919012;29;20234;-80
2021/06/29 05:32:39;;;;;;;8.47;7.97;;;16.80;99.90;;;;;;4919103;29;20199;-82
2021/06/29 05:35:09;;;;;;;5.10;4.70;;;16.80;99.90;;;;;;4917502;29;20221;-83
2021/06/29 05:37:36;;;;;;;4.57;4.27;;;16.90;99.90;;;;;;4918376;29;20576;-83
2021/06/29 05:40:04;;;;;;;5.37;4.87;;;17.00;99.90;;;;;;4918242;29;20236;-82
2021/06/29 05:42:31;;;;;;;4.83;4.50;;;17.10;99.90;;;;;;4916906;29;20792;-80
2021/06/29 05:44:58;;;;;;;8.67;8.07;;;17.10;99.90;;;;;;4916179;29;20210;-81
2021/06/29 05:47:25;;;;;;;5.70;5.20;;;17.10;99.90;;;;;;4918744;29;20207;-82
2021/06/29 05:49:52;;;;;;;4.73;4.40;;;17.20;99.90;;;;;;4918277;29;20282;-82
2021/06/29 05:52:20;;;;;;;5.03;4.63;;;17.30;99.90;;;;;;4916894;29;20694;-83
2021/06/29 05:54:47;;;;;;;4.93;4.53;;;17.40;99.90;;;;;;4916597;29;20247;-83
2021/06/29 05:57:14;;;;;;;9.60;8.90;;;17.50;99.90;;;;;;4917831;29;20205;-82
2021/06/29 05:59:41;;;;;;;9.40;8.80;;;17.60;99.90;;;;;;4920049;29;20764;-82
2021/06/29 06:02:09;;;;;;;7.50;7.00;;;17.70;99.90;;;;;;4915857;29;20649;-81
2021/06/29 06:04:36;;;;;;;8.33;7.73;;;17.90;99.90;;;;;;4917295;29;20660;-82
2021/06/29 06:07:03;;;;;;;8.90;8.30;;;18.00;99.90;;;;;;4917103;29;20204;-83
2021/06/29 06:09:31;;;;;;;9.30;8.70;;;18.10;99.90;;;;;;4916123;29;20255;-82
2021/06/29 06:11:58;;;;;;;10.70;9.90;;;18.30;99.90;;;;;;4916455;29;20210;-80
2021/06/29 06:14:25;;;;;;;6.50;6.00;;;18.50;99.90;;;;;;4917682;29;20247;-83
2021/06/29 06:16:52;;;;;;;8.80;8.30;;;18.70;99.90;;;;;;4916146;29;20231;-81
2021/06/29 06:19:18;;;;;;;4.77;4.30;;;18.90;99.90;;;;;;4916583;29;20267;-83
2021/06/29 06:21:45;;;;;;;4.60;4.20;;;19.20;99.90;;;;;;4915555;29;20220;-82
2021/06/29 06:24:12;;;;;;;4.13;3.83;;;19.60;99.90;;;;;;4916513;29;20197;-82
2021/06/29 06:26:41;;;;;;;5.40;4.10;;;19.70;99.90;;;;;;4915480;29;20213;-82
2021/06/29 06:29:08;;;;;;;4.30;3.77;;;20.10;99.90;;;;;;4915717;29;20202;-82
2021/06/29 06:31:34;;;;;;;4.40;3.93;;;20.20;99.90;;;;;;4916380;29;20223;-81
2021/06/29 06:34:01;;;;;;;7.10;6.63;;;20.60;99.90;;;;;;4915067;29;20593;-81
2021/06/29 06:36:28;;;;;;;11.97;11.27;;;21.00;99.90;;;;;;4915619;29;20213;-83
2021/06/29 06:38:56;;;;;;;11.23;10.43;;;21.50;99.90;;;;;;4915525;29;20204;-82
2021/06/29 06:41:23;;;;;;;10.83;10.13;;;21.80;99.90;;;;;;4916261;29;20223;-82
2021/06/29 06:43:51;;;;;;;10.53;9.93;;;21.90;99.90;;;;;;4917076;29;20550;-81
2021/06/29 06:46:18;;;;;;;10.40;9.80;;;22.20;99.90;;;;;;4917724;29;20204;-82
2021/06/29 06:48:47;;;;;;;10.73;10.03;;;22.80;99.90;;;;;;4916183;29;20204;-82
2021/06/29 06:51:14;;;;;;;10.17;9.57;;;23.40;99.90;;;;;;4916252;29;20224;-83
2021/06/29 06:53:42;;;;;;;10.07;9.47;;;23.80;99.90;;;;;;4916443;29;20739;-82
2021/06/29 06:56:14;;;;;;;5.03;3.93;;;24.30;99.90;;;;;;4915080;29;20199;-82
2021/06/29 06:58:41;;;;;;;3.97;3.73;;;24.10;99.90;;;;;;4914610;29;20688;-83
2021/06/29 07:01:09;;;;;;;5.70;3.30;;;24.00;99.90;;;;;;4915744;29;20227;-83
2021/06/29 07:03:36;;;;;;;3.70;3.50;;;24.40;99.90;;;;;;4916620;29;20200;-84
2021/06/29 07:06:03;;;;;;;8.70;8.13;;;24.80;99.90;;;;;;4916068;29;20214;-83
2021/06/29 07:08:30;;;;;;;3.53;3.33;;;24.90;99.90;;;;;;4914378;29;20196;-82
2021/06/29 07:10:57;;;;;;;4.17;3.63;;;25.20;99.90;;;;;;4915492;29;20275;-83
2021/06/29 07:13:24;;;;;;;3.40;3.10;;;25.20;99.90;;;;;;4915376;29;20257;-84
2021/06/29 07:15:51;;;;;;;3.30;3.10;;;25.10;99.90;;;;;;4922495;29;20210;-84
2021/06/29 07:18:20;;;;;;;2.90;2.60;;;25.50;99.90;;;;;;4921671;29;20563;-84
2021/06/29 07:20:47;;;;;;;4.67;2.83;;;25.70;99.90;;;;;;4920465;29;20231;-83
2021/06/29 07:23:15;;;;;;;4.20;2.80;;;25.60;99.90;;;;;;4922499;29;20743;-84
2021/06/29 07:25:42;;;;;;;3.63;2.73;;;25.90;99.90;;;;;;4921105;29;20227;-84
2021/06/29 07:28:09;;;;;;;6.00;5.60;;;25.90;99.90;;;;;;4921592;29;20215;-83
2021/06/29 07:30:37;;;;;;;7.10;6.60;;;26.10;99.90;;;;;;4921205;29;20235;-84
2021/06/29 07:33:05;;;;;;;8.00;7.50;;;26.10;99.90;;;;;;4919650;29;20578;-84
2021/06/29 07:35:33;;;;;;;6.93;6.53;;;26.10;99.90;;;;;;4920757;29;20199;-83
2021/06/29 07:38:01;;;;;;;6.07;5.67;;;26.00;99.90;;;;;;4920721;29;20602;-85
2021/06/29 07:40:29;;;;;;;5.70;5.40;;;25.80;99.90;;;;;;4921108;29;20276;-83
2021/06/29 07:42:56;;;;;;;6.47;6.10;;;26.20;99.90;;;;;;4920291;29;20218;-84
2021/06/29 07:45:25;;;;;;;5.00;4.70;;;26.60;99.90;;;;;;4922276;29;20204;-85
2021/06/29 07:47:55;;;;;;;6.40;6.10;;;26.90;99.90;;;;;;4923465;29;20605;-85
2021/06/29 07:50:22;;;;;;;6.47;6.07;;;27.00;99.90;;;;;;4924800;29;20230;-85
2021/06/29 07:52:50;;;;;;;4.77;4.47;;;27.30;99.90;;;;;;4923077;29;20207;-84
2021/06/29 07:55:17;;;;;;;4.80;4.50;;;27.10;99.90;;;;;;4921821;29;20689;-82
2021/06/29 07:57:44;;;;;;;4.40;4.10;;;27.40;99.90;;;;;;4921213;29;20203;-85
2021/06/29 08:00:14;;;;;;;4.20;3.90;;;27.30;99.90;;;;;;4919637;29;20231;-84
2021/06/29 08:02:42;;;;;;;4.23;3.93;;;27.20;99.90;;;;;;4920878;29;20604;-82
2021/06/29 08:05:09;;;;;;;3.90;3.70;;;27.40;99.90;;;;;;4922771;29;20211;-85
2021/06/29 08:07:36;;;;;;;4.10;3.80;;;27.30;99.90;;;;;;4924061;29;20218;-82
2021/06/29 08:10:05;;;;;;;5.63;5.23;;;27.00;99.90;;;;;;4920979;29;20243;-85
2021/06/29 08:12:32;;;;;;;4.40;3.90;;;26.90;99.90;;;;;;4917767;29;20217;-84
2021/06/29 08:14:59;;;;;;;4.67;4.37;;;27.20;99.90;;;;;;4922955;29;20196;-85
2021/06/29 08:17:27;;;;;;;5.33;4.93;;;27.00;99.90;;;;;;4921243;29;20243;-85
2021/06/29 08:19:54;;;;;;;5.10;4.80;;;27.40;99.90;;;;;;4922877;29;20219;-85
2021/06/29 08:22:21;;;;;;;8.77;8.27;;;27.70;99.90;;;;;;4921031;29;20699;-84
2021/06/29 08:24:47;;;;;;;8.80;8.30;;;27.90;99.90;;;;;;4921267;29;20589;-84
2021/06/29 08:27:16;;;;;;;9.30;8.80;;;28.00;99.90;;;;;;4920287;29;20267;-83
2021/06/29 08:29:43;;;;;;;7.60;7.10;;;27.70;99.90;;;;;;4919565;29;20250;-85
2021/06/29 08:32:10;;;;;;;9.00;8.50;;;27.70;99.90;;;;;;4920789;29;20195;-85
2021/06/29 08:34:37;;;;;;;8.90;8.40;;;27.60;99.90;;;;;;4922176;29;20200;-85
2021/06/29 08:37:05;;;;;;;8.90;8.40;;;27.60;99.90;;;;;;4920484;29;20214;-85
2021/06/29 08:39:31;;;;;;;8.97;8.47;;;27.80;99.90;;;;;;4920647;29;20561;-80
2021/06/29 08:41:58;;;;;;;9.27;8.67;;;27.90;99.90;;;;;;4923107;29;20220;-84
2021/06/29 08:44:27;;;;;;;8.77;8.27;;;27.90;99.90;;;;;;4918400;29;20282;-84
2021/06/29 08:46:53;;;;;;;8.97;8.20;;;28.00;99.90;;;;;;4920272;29;20671;-84
2021/06/29 08:49:20;;;;;;;8.63;8.10;;;28.00;99.90;;;;;;4920229;29;20219;-83
2021/06/29 08:51:48;;;;;;;8.70;8.20;;;28.40;99.90;;;;;;4920896;29;20603;-85
2021/06/29 08:54:16;;;;;;;8.67;8.17;;;28.20;99.90;;;;;;4918760;29;20577;-82
2021/06/29 08:56:42;;;;;;;8.30;7.80;;;28.10;99.90;;;;;;4933189;29;20565;-84
2021/06/29 08:59:09;;;;;;;8.33;7.83;;;28.40;99.90;;;;;;4918353;29;20207;-84
2021/06/29 09:01:37;;;;;;;8.40;7.90;;;28.70;99.90;;;;;;4912340;29;20226;-84
2021/06/29 09:04:05;;;;;;;8.53;8.00;;;29.00;99.90;;;;;;4918083;29;20204;-84
2021/06/29 09:06:33;;;;;;;8.57;8.07;;;28.70;99.90;;;;;;4919344;29;20208;-84
2021/06/29 09:09:22;;;;;;;8.60;8.10;;;28.70;99.90;;;;;;4919605;29;20200;-84
2021/06/29 09:11:49;;;;;;;8.77;8.27;;;29.00;99.90;;;;;;4918164;29;20678;-84
2021/06/29 09:14:18;;;;;;;8.53;8.03;;;29.20;99.90;;;;;;4917990;29;20216;-85
2021/06/29 09:16:47;;;;;;;8.50;8.00;;;28.80;99.90;;;;;;4914129;29;20219;-83
2021/06/29 09:19:36;;;;;;;9.43;8.93;;;28.90;99.90;;;;;;4916831;29;20201;-83
2021/06/29 09:22:31;;;;;;;3.13;2.90;;;28.80;99.90;;;;;;4929029;29;20229;-84
2021/06/29 09:24:58;;;;;;;3.60;3.30;;;28.90;99.90;;;;;;4917052;29;20208;-84
2021/06/29 09:27:42;;;;;;;9.17;8.67;;;28.90;99.90;;;;;;4918536;29;20256;-84
2021/06/29 09:30:31;;;;;;;9.53;8.90;;;29.20;99.90;;;;;;4916529;29;20248;-85
2021/06/29 09:33:02;;;;;;;8.67;8.17;;;29.50;99.90;;;;;;4913772;29;20192;-84
2021/06/29 09:35:29;;;;;;;8.77;8.17;;;29.30;99.90;;;;;;4918062;29;20218;-84
2021/06/29 09:37:57;;;;;;;9.00;8.50;;;29.10;99.90;;;;;;4918843;29;20208;-85
2021/06/29 09:40:27;;;;;;;8.80;8.30;;;29.10;99.90;;;;;;4912679;29;20267;-84
2021/06/29 09:43:06;;;;;;;8.27;7.80;;;28.80;99.90;;;;;;4916547;29;20223;-84
2021/06/29 09:45:34;;;;;;;8.23;7.73;;;28.80;99.90;;;;;;4916561;29;20237;-84
2021/06/29 09:48:07;;;;;;;8.00;7.50;;;28.40;99.90;;;;;;4916210;29;20204;-85
2021/06/29 09:50:40;;;;;;;9.60;9.10;;;28.60;99.90;;;;;;4917403;29;20223;-84
2021/06/29 09:53:18;;;;;;;9.27;8.77;;;28.50;99.90;;;;;;4917384;29;20203;-85
2021/06/29 09:55:47;;;;;;;9.50;8.40;;;28.60;99.90;;;;;;4916638;29;20215;-84
2021/06/29 09:58:16;;;;;;;9.07;8.17;;;28.40;99.90;;;;;;4916194;29;20206;-84
2021/06/29 10:00:50;;;;;;;8.90;8.40;;;28.20;99.90;;;;;;4916350;29;20237;-84
2021/06/29 10:03:21;;;;;;;9.97;9.10;;;28.10;99.90;;;;;;4918534;29;20323;-86
2021/06/29 10:05:48;;;;;;;8.50;8.00;;;28.20;99.90;;;;;;4917901;29;20586;-84
2021/06/29 10:08:26;;;;;;;8.87;8.37;;;28.40;99.90;;;;;;4914886;29;20226;-85
2021/06/29 10:11:08;;;;;;;8.60;8.10;;;28.60;99.90;;;;;;4915505;29;20215;-85
2021/06/29 10:13:36;;;;;;;9.07;8.37;;;28.80;99.90;;;;;;4917155;29;20251;-84
2021/06/29 10:16:05;;;;;;;8.53;8.00;;;28.20;99.90;;;;;;4916091;29;20204;-84
2021/06/29 10:18:36;;;;;;;7.87;7.47;;;27.80;99.90;;;;;;4916635;29;20208;-84
2021/06/29 10:21:14;;;;;;;7.70;7.30;;;27.70;99.90;;;;;;4916459;29;20224;-84
2021/06/29 10:23:43;;;;;;;8.07;7.47;;;27.70;99.90;;;;;;4916330;29;20224;-84
2021/06/29 10:26:10;;;;;;;7.87;7.47;;;27.70;99.90;;;;;;4916032;29;20196;-85
2021/06/29 10:28:38;;;;;;;8.37;7.77;;;27.90;99.90;;;;;;4915648;29;20240;-82
2021/06/29 10:31:05;;;;;;;8.23;7.73;;;27.60;99.90;;;;;;4917237;29;20219;-84
2021/06/29 10:33:34;;;;;;;8.07;7.57;;;27.40;99.90;;;;;;4916451;29;20239;-83
2021/06/29 10:36:02;;;;;;;8.03;7.60;;;27.70;99.90;;;;;;4915849;29;20211;-85
2021/06/29 10:38:29;;;;;;;7.87;7.37;;;27.60;99.90;;;;;;4915242;29;20238;-84
2021/06/29 10:40:57;;;;;;;8.30;7.80;;;27.70;99.90;;;;;;4915224;29;20242;-84
2021/06/29 10:43:24;;;;;;;8.00;7.60;;;27.90;99.90;;;;;;4915467;29;20226;-84
2021/06/29 10:48:37;;;;;;;7.73;7.30;;;27.50;99.90;;;;;;4913513;29;20287;-83
2021/06/29 10:51:04;;;;;;;7.90;7.50;;;27.70;99.90;;;;;;4916663;29;20247;-84
2021/06/29 10:53:46;;;;;;;8.67;7.63;;;27.80;99.90;;;;;;4921958;29;20294;-83
2021/06/29 10:56:17;;;;;;;8.47;7.97;;;27.40;99.90;;;;;;4924850;29;20223;-84
2021/06/29 10:58:47;;;;;;;7.67;7.27;;;27.40;99.90;;;;;;4910072;29;20210;-84
2021/06/29 11:01:29;;;;;;;8.20;7.70;;;27.30;99.90;;;;;;4919073;29;20220;-85
2021/06/29 11:04:00;;;;;;;8.30;7.80;;;27.60;99.90;;;;;;4920751;29;20290;-85
2021/06/29 11:06:46;;;;;;;8.33;7.83;;;27.60;99.90;;;;;;4923977;29;20208;-85
2021/06/29 11:09:20;;;;;;;8.13;7.63;;;27.70;99.90;;;;;;4921770;29;20560;-84
2021/06/29 11:12:20;;;;;;;8.57;7.93;;;27.40;99.90;;;;;;4921915;29;20232;-86
2021/06/29 11:14:48;;;;;;;8.70;8.10;;;27.30;99.90;;;;;;4919812;29;20204;-84
2021/06/29 11:17:16;;;;;;;8.40;7.90;;;27.20;99.90;;;;;;4919598;29;20267;-83
2021/06/29 11:20:13;;;;;;;8.00;7.50;;;27.20;99.90;;;;;;4920475;29;20247;-83
2021/06/29 11:22:56;;;;;;;8.20;7.70;;;27.40;99.90;;;;;;4919603;29;20212;-83
2021/06/29 11:25:55;;;;;;;8.63;7.93;;;27.50;99.90;;;;;;4918995;29;20697;-84
2021/06/29 11:28:30;;;;;;;7.50;7.10;;;27.90;99.90;;;;;;4910785;29;20235;-83
2021/06/29 11:31:02;;;;;;;8.40;7.80;;;28.00;99.90;;;;;;4912083;29;20220;-83
2021/06/29 11:33:31;;;;;;;8.00;7.50;;;27.70;99.90;;;;;;4917114;29;20204;-84
2021/06/29 11:36:00;;;;;;;8.27;7.77;;;27.70;99.90;;;;;;4919224;29;20203;-83
2021/06/29 11:38:35;;;;;;;8.30;7.80;;;27.50;99.90;;;;;;4918901;29;20207;-82
2021/06/29 11:41:35;;;;;;;8.63;8.13;;;27.20;99.90;;;;;;4918740;29;20227;-85
2021/06/29 11:44:31;;;;;;;8.10;7.60;;;27.20;99.90;;;;;;4911926;29;20600;-82
2021/06/29 11:47:00;;;;;;;8.20;7.70;;;27.60;99.90;;;;;;4916656;29;20271;-80
2021/06/29 11:49:29;;;;;;;8.00;7.50;;;27.70;99.90;;;;;;4919077;29;20230;-80
2021/06/29 11:51:59;;;;;;;7.47;7.07;;;27.40;99.90;;;;;;4917043;29;20200;-80
2021/06/29 11:54:27;;;;;;;8.40;7.90;;;27.10;99.90;;;;;;4917291;29;20855;-80
2021/06/29 11:56:56;;;;;;;8.53;8.10;;;27.00;99.90;;;;;;4917728;29;20271;-79
2021/06/29 11:59:30;;;;;;;8.43;7.90;;;26.90;99.90;;;;;;4912845;29;20626;-81
2021/06/29 12:02:05;;;;;;;8.50;8.00;;;26.80;99.90;;;;;;4911762;29;20223;-81
2021/06/29 12:04:33;;;;;;;8.00;7.50;;;26.50;99.90;;;;;;4917422;29;20244;-82
2021/06/29 12:07:05;;;;;;;8.20;7.50;;;26.50;99.90;;;;;;4917773;29;20230;-82
2021/06/29 12:09:33;;;;;;;8.20;7.60;;;26.80;99.90;;;;;;4917426;29;20203;-80
2021/06/29 12:12:21;;;;;;;9.23;8.63;;;27.10;99.90;;;;;;4919343;29;20686;-82
2021/06/29 12:14:48;;;;;;;7.97;7.50;;;27.20;99.90;;;;;;4917711;29;20665;-81
2021/06/29 12:17:15;;;;;;;8.30;7.80;;;27.20;99.90;;;;;;4917312;29;20211;-82
2021/06/29 12:19:42;;;;;;;8.40;7.90;;;27.10;99.90;;;;;;4918596;29;20275;-81
2021/06/29 12:22:10;;;;;;;8.13;7.73;;;27.00;99.90;;;;;;4921329;29;20204;-82
2021/06/29 12:24:37;;;;;;;7.90;7.40;;;26.90;99.90;;;;;;4917081;29;20250;-82
2021/06/29 12:27:17;;;;;;;8.40;7.90;;;26.90;99.90;;;;;;4917020;29;20212;-82
2021/06/29 12:29:44;;;;;;;8.30;7.80;;;26.90;99.90;;;;;;4917405;29;20656;-82
2021/06/29 12:32:19;;;;;;;8.30;7.80;;;26.90;99.90;;;;;;4920550;29;20204;-81
2021/06/29 12:34:46;;;;;;;8.70;8.20;;;26.90;99.90;;;;;;4921134;29;20741;-82
2021/06/29 12:37:15;;;;;;;8.60;8.10;;;26.70;99.90;;;;;;4920749;29;20699;-81
2021/06/29 12:39:42;;;;;;;8.20;7.60;;;26.40;99.90;;;;;;4922061;29;20254;-81
2021/06/29 12:42:11;;;;;;;7.90;7.40;;;26.00;99.90;;;;;;4920743;29;20623;-82
2021/06/29 12:44:37;;;;;;;8.37;7.90;;;25.70;99.90;;;;;;4921879;29;20247;-82
2021/06/29 12:47:05;;;;;;;8.33;7.57;;;25.30;99.90;;;;;;4919829;29;20206;-81
2021/06/29 12:49:33;;;;;;;7.90;7.30;;;24.60;99.90;;;;;;4919903;29;20242;-81
2021/06/29 12:52:08;;;;;;;9.10;7.13;;;23.40;99.90;;;;;;4920657;29;20204;-81
2021/06/29 12:54:38;;;;;;;7.10;6.73;;;22.60;99.90;;;;;;4921075;29;20204;-81
2021/06/29 12:57:08;;;;;;;7.63;7.00;;;21.90;99.90;;;;;;4920339;29;20196;-81
2021/06/29 12:59:36;;;;;;;12.20;7.97;;;21.20;99.90;;;;;;4920579;29;20200;-81
2021/06/29 13:02:06;;;;;;;9.53;8.73;;;19.90;99.90;;;;;;4919471;29;20648;-79
2021/06/29 13:04:41;;;;;;;14.93;8.33;;;18.50;99.90;;;;;;4921456;29;20222;-80
2021/06/29 13:07:08;;;;;;;8.63;7.93;;;17.70;99.90;;;;;;4922091;29;20203;-80
2021/06/29 13:09:41;;;;;;;8.00;7.50;;;17.20;99.90;;;;;;4921301;29;20678;-80